Time;durP1;ratioP1;P1;durP2;ratioP2;P2;SDS_P1;SDS_P2;PMS_P1;PMS_P2;Temp;Humidity;BMP_temperature;BMP_pressure;BME280_temperature;BME280_humidity;BME280_pressure;Samples;Min_cycle;Max_cycle;Signal;HPM_P1;HPM_P2
2022/02/06 00:01:33;;;;;;;17.15;4.60;;;9.10;83.40;;;;;;4918748;29;20063;-75
2022/02/06 00:03:58;;;;;;;19.48;4.95;;;9.10;83.40;;;;;;4917786;28;20674;-76
2022/02/06 00:06:24;;;;;;;16.25;3.78;;;9.10;83.30;;;;;;4920183;28;20527;-78
2022/02/06 00:08:53;;;;;;;18.35;4.53;;;9.20;83.20;;;;;;4931385;28;20044;-73
2022/02/06 00:11:19;;;;;;;15.95;3.58;;;9.20;82.90;;;;;;4914072;28;20044;-75
2022/02/06 00:13:44;;;;;;;16.70;3.92;;;9.20;82.80;;;;;;4917057;28;20047;-74
2022/02/06 00:16:10;;;;;;;13.77;3.88;;;9.20;82.70;;;;;;4918936;28;20475;-75
2022/02/06 00:18:36;;;;;;;20.40;4.43;;;9.30;82.50;;;;;;4919408;28;20043;-77
2022/02/06 00:21:07;;;;;;;16.27;3.97;;;9.30;82.30;;;;;;4914091;28;20036;-76
2022/02/06 00:23:34;;;;;;;15.73;4.32;;;9.30;82.20;;;;;;4920575;28;20059;-74
2022/02/06 00:26:09;;;;;;;16.33;3.63;;;9.30;82.10;;;;;;4919340;28;20486;-73
2022/02/06 00:38:05;;;;;;;18.13;4.45;;;9.40;81.50;;;;;;4914624;28;20089;-76
2022/02/06 00:41:21;;;;;;;15.68;3.58;;;9.50;81.40;;;;;;4918301;28;20139;-74
2022/02/06 00:43:47;;;;;;;15.23;3.67;;;9.60;81.10;;;;;;4919304;28;20044;-74
2022/02/06 00:46:15;;;;;;;15.98;3.60;;;9.60;81.10;;;;;;4927424;28;20110;-74
2022/02/06 00:48:44;;;;;;;17.55;4.10;;;9.60;81.00;;;;;;4912814;28;20036;-76
2022/02/06 00:53:42;;;;;;;14.73;3.70;;;9.60;80.80;;;;;;4920830;28;20039;-75
2022/02/06 00:56:09;;;;;;;14.18;3.80;;;9.60;81.00;;;;;;4923679;28;20057;-75
2022/02/06 00:58:35;;;;;;;23.65;5.20;;;9.60;80.90;;;;;;4922902;28;20056;-74
2022/02/06 01:01:01;;;;;;;17.88;4.47;;;9.60;80.90;;;;;;4920904;28;20548;-75
2022/02/06 01:03:27;;;;;;;14.95;4.10;;;9.60;80.80;;;;;;4919256;28;20447;-78
2022/02/06 01:05:54;;;;;;;14.57;3.30;;;9.60;80.80;;;;;;4923612;28;20051;-74
2022/02/06 01:08:20;;;;;;;17.77;3.63;;;9.70;80.80;;;;;;4921584;28;20308;-72
2022/02/06 01:10:45;;;;;;;12.00;3.33;;;9.60;80.70;;;;;;4920556;28;20388;-72
2022/02/06 01:13:37;;;;;;;13.93;3.67;;;9.70;80.80;;;;;;4918043;28;20036;-73
2022/02/06 01:16:07;;;;;;;20.67;3.80;;;9.70;80.80;;;;;;4920070;28;20039;-76
2022/02/06 01:18:41;;;;;;;16.77;3.67;;;9.60;80.70;;;;;;4907147;28;20031;-76
2022/02/06 01:21:17;;;;;;;14.15;3.97;;;9.70;80.60;;;;;;4920089;28;20036;-75
2022/02/06 01:23:53;;;;;;;17.80;3.63;;;9.60;80.90;;;;;;4921440;28;20051;-75
2022/02/06 01:26:46;;;;;;;16.77;3.72;;;9.60;80.90;;;;;;4919012;28;20041;-74
2022/02/06 01:29:16;;;;;;;16.65;3.72;;;9.70;80.90;;;;;;4919492;28;20079;-77
2022/02/06 01:31:54;;;;;;;16.75;3.45;;;9.60;81.50;;;;;;4921007;28;20042;-76
2022/02/06 01:34:27;;;;;;;16.73;3.95;;;9.70;82.20;;;;;;4916926;28;20044;-76
2022/02/06 01:42:06;;;;;;;16.40;3.50;;;9.50;84.10;;;;;;4921587;28;20063;-74
2022/02/06 01:44:50;;;;;;;14.43;3.90;;;9.50;84.20;;;;;;4921164;28;20067;-74
2022/02/06 02:48:12;;;;;;;16.67;3.78;;;9.60;84.00;;;;;;4921119;28;20039;-73
2022/02/06 02:50:42;;;;;;;17.92;3.33;;;9.60;84.00;;;;;;4921241;28;20046;-77
2022/02/06 02:58:18;;;;;;;18.45;3.95;;;9.60;85.00;;;;;;4919499;28;20502;-74
2022/02/06 03:03:29;;;;;;;19.23;3.72;;;9.40;86.20;;;;;;4918853;28;20584;-73
2022/02/06 03:05:56;;;;;;;20.98;4.97;;;9.40;86.70;;;;;;4922075;28;20040;-73
2022/02/06 03:08:22;;;;;;;18.77;4.55;;;9.40;87.10;;;;;;4918985;28;20035;-78
2022/02/06 03:10:51;;;;;;;19.35;4.18;;;9.40;87.50;;;;;;4921258;28;20043;-74
2022/02/06 03:13:19;;;;;;;20.55;4.93;;;9.40;87.70;;;;;;4919161;28;20728;-75
2022/02/06 03:15:50;;;;;;;20.77;4.57;;;9.30;87.90;;;;;;4922607;28;20046;-75
2022/02/06 03:18:21;;;;;;;17.00;4.05;;;9.30;88.50;;;;;;4921856;28;20058;-75
2022/02/06 03:20:49;;;;;;;19.73;4.95;;;9.30;88.60;;;;;;4921268;28;20036;-73
2022/02/06 03:23:15;;;;;;;15.77;4.03;;;9.30;88.80;;;;;;4919235;28;20039;-76
2022/02/06 03:25:53;;;;;;;19.33;4.25;;;9.30;88.80;;;;;;4919773;28;20067;-73
2022/02/06 03:28:23;;;;;;;18.77;4.05;;;9.30;88.90;;;;;;4930020;28;20534;-73
2022/02/06 03:30:49;;;;;;;23.20;4.78;;;9.30;88.80;;;;;;4920515;28;20050;-74
2022/02/06 03:33:15;;;;;;;24.88;4.38;;;9.20;89.00;;;;;;4919761;28;20044;-75
2022/02/06 03:35:41;;;;;;;19.60;3.75;;;9.20;88.90;;;;;;4920062;28;20078;-75
2022/02/06 03:38:07;;;;;;;19.48;4.43;;;9.20;89.00;;;;;;4916962;28;20071;-78
2022/02/06 03:40:41;;;;;;;18.60;4.03;;;9.20;89.10;;;;;;4935658;28;20032;-76
2022/02/06 03:43:20;;;;;;;16.03;3.93;;;9.20;89.20;;;;;;4927953;28;20032;-74
2022/02/06 03:45:53;;;;;;;17.20;3.60;;;9.20;89.40;;;;;;4923369;28;20126;-76
2022/02/06 03:50:49;;;;;;;18.13;5.05;;;9.20;89.50;;;;;;4923352;28;20344;-75
2022/02/06 03:53:18;;;;;;;15.07;4.32;;;9.10;89.60;;;;;;4925452;28;20051;-76
2022/02/06 03:55:45;;;;;;;21.88;4.93;;;9.20;89.70;;;;;;4922317;28;21231;-76
2022/02/06 03:58:11;;;;;;;22.67;5.00;;;9.20;89.60;;;;;;4920114;28;20052;-73
2022/02/06 04:00:37;;;;;;;15.90;3.65;;;9.10;89.80;;;;;;4922752;28;20040;-75
2022/02/06 04:03:03;;;;;;;13.38;3.42;;;9.10;89.80;;;;;;4925826;28;20435;-76
2022/02/06 04:05:30;;;;;;;15.68;4.43;;;9.10;90.00;;;;;;4922702;28;20048;-74
2022/02/06 04:07:55;;;;;;;13.77;3.40;;;9.10;90.00;;;;;;4921727;28;20040;-75
2022/02/06 04:10:21;;;;;;;21.85;4.07;;;9.10;90.00;;;;;;4925901;28;20027;-77
2022/02/06 04:12:49;;;;;;;18.60;3.70;;;9.10;89.90;;;;;;4924849;28;20131;-72
2022/02/06 04:15:25;;;;;;;17.05;3.83;;;9.10;89.90;;;;;;4929536;28;20459;-76
2022/02/06 04:18:06;;;;;;;19.27;3.67;;;9.10;90.10;;;;;;4925034;28;20040;-73
2022/02/06 04:20:32;;;;;;;15.63;3.85;;;9.10;90.10;;;;;;4917985;28;20118;-73
2022/02/06 04:22:57;;;;;;;20.50;4.13;;;9.00;90.50;;;;;;4922156;28;20043;-75
2022/02/06 04:25:23;;;;;;;16.98;3.45;;;9.00;90.60;;;;;;4922120;28;20044;-73
2022/02/06 04:27:48;;;;;;;15.38;3.28;;;9.00;90.60;;;;;;4920053;28;20067;-75
2022/02/06 04:30:14;;;;;;;17.40;3.78;;;9.10;90.50;;;;;;4919812;28;20091;-73
2022/02/06 04:32:40;;;;;;;15.57;3.92;;;9.10;90.50;;;;;;4920760;28;20038;-75
2022/02/06 04:35:09;;;;;;;17.67;4.30;;;9.10;90.50;;;;;;4952350;28;20059;-73
2022/02/06 04:38:22;;;;;;;16.60;3.50;;;9.10;90.50;;;;;;4934212;28;20548;-74
2022/02/06 04:40:50;;;;;;;19.38;4.00;;;9.10;90.40;;;;;;4913797;28;20032;-78
2022/02/06 05:21:10;;;;;;;20.48;4.88;;;9.40;89.50;;;;;;4935213;28;20048;-75
2022/02/06 05:23:51;;;;;;;15.98;3.97;;;9.40;89.40;;;;;;4908717;28;20036;-75
2022/02/06 05:34:18;;;;;;;19.95;4.43;;;9.40;89.30;;;;;;4921311;28;20047;-73
2022/02/06 05:36:44;;;;;;;17.42;4.35;;;9.40;89.30;;;;;;4920644;28;20040;-76
2022/02/06 05:39:10;;;;;;;18.90;4.70;;;9.40;89.30;;;;;;4920249;28;20538;-75
2022/02/06 05:41:35;;;;;;;19.08;4.25;;;9.50;89.40;;;;;;4921765;28;20055;-74
2022/02/06 05:44:03;;;;;;;17.38;4.20;;;9.40;89.40;;;;;;4920154;28;20468;-76
2022/02/06 05:46:28;;;;;;;21.20;4.03;;;9.40;89.70;;;;;;4920668;28;20438;-74
2022/02/06 05:48:54;;;;;;;12.20;3.20;;;9.40;89.70;;;;;;4921293;28;20039;-75
2022/02/06 05:51:20;;;;;;;17.30;4.45;;;9.40;89.70;;;;;;4917557;28;20043;-74
2022/02/06 05:53:46;;;;;;;24.27;4.35;;;9.40;89.80;;;;;;4921215;28;20043;-75
2022/02/06 05:56:12;;;;;;;16.75;4.57;;;9.40;89.70;;;;;;4920592;28;20078;-75
2022/02/06 05:58:37;;;;;;;16.65;4.20;;;9.40;89.80;;;;;;4920788;28;20416;-78
2022/02/06 06:01:03;;;;;;;17.38;4.18;;;9.40;89.80;;;;;;4920165;28;20035;-74
2022/02/06 06:03:29;;;;;;;16.05;4.07;;;9.40;89.80;;;;;;4920539;28;20055;-75
2022/02/06 06:05:54;;;;;;;19.10;3.67;;;9.40;89.70;;;;;;4921181;28;20048;-74
2022/02/06 06:08:20;;;;;;;14.13;3.53;;;9.50;89.70;;;;;;4918019;28;20046;-76
2022/02/06 06:10:46;;;;;;;16.45;3.65;;;9.40;89.70;;;;;;4921253;28;20040;-75
2022/02/06 06:13:12;;;;;;;19.00;3.83;;;9.40;90.00;;;;;;4933382;28;20126;-75
2022/02/06 06:15:38;;;;;;;15.52;3.55;;;9.50;89.90;;;;;;4920741;28;20079;-76
2022/02/06 06:18:06;;;;;;;15.07;3.70;;;9.40;90.10;;;;;;4930363;28;20554;-75
2022/02/06 06:20:34;;;;;;;16.80;3.92;;;9.40;90.10;;;;;;4915115;28;20040;-73
2022/02/06 06:23:00;;;;;;;17.77;3.95;;;9.40;90.10;;;;;;4918687;28;20127;-77
2022/02/06 06:25:33;;;;;;;19.30;4.13;;;9.40;90.20;;;;;;4919745;28;20039;-74
2022/02/06 06:27:58;;;;;;;22.05;4.53;;;9.40;90.30;;;;;;4919817;28;20547;-74
2022/02/06 06:30:24;;;;;;;15.07;3.42;;;9.40;90.10;;;;;;4922006;28;20126;-75
2022/02/06 06:32:50;;;;;;;21.27;4.20;;;9.40;90.00;;;;;;4919908;28;20127;-72
2022/02/06 06:35:16;;;;;;;16.33;3.85;;;9.40;90.00;;;;;;4918626;28;20451;-76
2022/02/06 06:37:42;;;;;;;16.33;4.20;;;9.40;90.10;;;;;;4935855;28;20404;-75
2022/02/06 06:40:08;;;;;;;16.20;4.35;;;9.40;90.10;;;;;;4919326;28;20034;-76
2022/02/06 06:42:34;;;;;;;16.55;3.92;;;9.40;90.00;;;;;;4919340;28;20428;-74
2022/02/06 06:45:00;;;;;;;21.20;4.30;;;9.40;90.10;;;;;;4916285;28;20035;-74
2022/02/06 06:47:26;;;;;;;18.70;4.38;;;9.40;90.00;;;;;;4917339;28;20506;-74
2022/02/06 06:49:51;;;;;;;19.63;4.30;;;9.40;90.20;;;;;;4918122;28;20048;-76
2022/02/06 06:52:17;;;;;;;20.38;4.03;;;9.40;90.00;;;;;;4919060;28;20039;-73
2022/02/06 06:54:47;;;;;;;15.90;4.15;;;9.40;90.00;;;;;;4919569;28;20491;-76
2022/02/06 06:57:26;;;;;;;15.18;4.05;;;9.40;90.10;;;;;;4912459;28;20381;-73
2022/02/06 07:02:27;;;;;;;17.00;3.78;;;9.40;90.10;;;;;;4921293;28;20441;-73
2022/02/06 07:05:03;;;;;;;15.88;4.68;;;9.40;90.10;;;;;;4919092;28;20055;-73
2022/02/06 07:07:29;;;;;;;15.30;3.50;;;9.40;90.10;;;;;;4914912;28;20510;-76
2022/02/06 07:09:55;;;;;;;15.98;3.75;;;9.50;90.10;;;;;;4921386;28;20075;-75
2022/02/06 07:12:21;;;;;;;16.65;3.80;;;9.50;90.20;;;;;;4918645;28;20334;-73
2022/02/06 07:14:49;;;;;;;17.52;4.30;;;9.50;90.10;;;;;;4918244;28;20064;-74
2022/02/06 07:17:15;;;;;;;21.08;4.32;;;9.50;89.90;;;;;;4918272;28;20043;-75
2022/02/06 07:19:43;;;;;;;20.02;3.90;;;9.50;89.90;;;;;;4918491;28;20363;-73
2022/02/06 07:22:12;;;;;;;19.85;3.50;;;9.40;90.00;;;;;;4922866;28;20571;-73
2022/02/06 07:24:38;;;;;;;21.42;4.40;;;9.40;90.10;;;;;;4924323;28;20522;-76
2022/02/06 07:27:14;;;;;;;14.63;3.47;;;9.40;90.10;;;;;;4924188;28;20043;-75
2022/02/06 07:29:40;;;;;;;17.45;3.83;;;9.40;90.00;;;;;;4926818;28;20036;-74
2022/02/06 07:32:06;;;;;;;14.93;3.03;;;9.40;90.00;;;;;;4939279;28;20505;-74
2022/02/06 07:34:31;;;;;;;12.50;3.08;;;9.40;90.00;;;;;;4925091;28;20071;-74
2022/02/06 07:36:57;;;;;;;12.75;3.17;;;9.40;90.10;;;;;;4923556;28;20534;-75
2022/02/06 07:39:23;;;;;;;10.27;3.05;;;9.40;90.10;;;;;;4922805;28;20032;-75
2022/02/06 07:41:48;;;;;;;9.75;2.80;;;9.40;90.00;;;;;;4923087;28;20170;-76
2022/02/06 07:44:14;;;;;;;14.48;3.15;;;9.40;90.20;;;;;;4924311;28;20051;-76
2022/02/06 07:46:45;;;;;;;15.30;2.70;;;9.30;90.10;;;;;;4928367;28;20055;-75
2022/02/06 07:49:11;;;;;;;11.13;2.65;;;9.30;90.00;;;;;;4916257;28;20036;-76
2022/02/06 07:51:39;;;;;;;10.18;2.90;;;9.30;90.20;;;;;;4918713;28;20039;-76
2022/02/06 07:54:05;;;;;;;9.52;2.42;;;9.30;90.20;;;;;;4916530;28;20036;-78
2022/02/06 07:56:30;;;;;;;8.05;2.90;;;9.30;90.10;;;;;;4924924;28;20070;-76
2022/02/06 07:58:56;;;;;;;11.50;3.17;;;9.20;90.10;;;;;;4914450;28;20090;-73
2022/02/06 08:01:22;;;;;;;10.85;2.70;;;9.20;90.10;;;;;;4916637;28;20332;-74
2022/02/06 08:03:47;;;;;;;11.35;3.20;;;9.20;90.20;;;;;;4918415;28;20039;-73
2022/02/06 08:06:14;;;;;;;9.32;2.80;;;9.20;90.10;;;;;;4909540;29;20761;-73
2022/02/06 08:08:40;;;;;;;10.45;3.28;;;9.20;90.10;;;;;;4934240;28;20514;-74
2022/02/06 08:11:11;;;;;;;10.40;2.90;;;9.20;90.10;;;;;;4913179;28;20038;-75
2022/02/06 08:13:44;;;;;;;10.63;3.30;;;9.20;90.30;;;;;;4916122;28;20463;-73
2022/02/06 08:16:10;;;;;;;14.13;3.05;;;9.20;90.50;;;;;;4916192;28;20595;-76
2022/02/06 08:18:40;;;;;;;10.82;3.10;;;9.20;90.60;;;;;;4917223;28;20029;-75
2022/02/06 08:21:09;;;;;;;12.43;3.60;;;9.20;90.80;;;;;;4913169;28;20070;-74
2022/02/06 08:23:35;;;;;;;14.88;3.88;;;9.20;90.90;;;;;;4914631;28;20458;-75
2022/02/06 08:26:02;;;;;;;16.27;3.58;;;9.20;91.10;;;;;;4946660;28;20802;-77
2022/02/06 08:28:28;;;;;;;14.60;3.55;;;9.30;91.30;;;;;;4943111;28;20120;-76
2022/02/06 08:30:54;;;;;;;16.80;4.85;;;9.20;91.40;;;;;;4932383;28;20059;-72
2022/02/06 08:33:19;;;;;;;15.05;4.25;;;9.20;91.60;;;;;;4915872;28;20034;-76
2022/02/06 08:35:48;;;;;;;17.77;4.22;;;9.20;91.60;;;;;;4918285;28;20410;-75
2022/02/06 08:38:13;;;;;;;16.08;3.70;;;9.20;91.70;;;;;;4947453;28;20032;-78
2022/02/06 08:40:40;;;;;;;12.68;2.92;;;9.30;91.80;;;;;;4918250;28;20530;-77
2022/02/06 08:43:06;;;;;;;16.13;3.60;;;9.30;91.80;;;;;;4914252;28;20100;-74
2022/02/06 08:45:33;;;;;;;11.23;3.28;;;9.30;91.80;;;;;;4917193;28;20471;-74
2022/02/06 08:47:58;;;;;;;19.05;4.38;;;9.30;91.80;;;;;;4938439;28;20127;-74
2022/02/06 08:50:24;;;;;;;16.25;3.78;;;9.30;91.90;;;;;;4933879;28;20126;-76
2022/02/06 08:52:50;;;;;;;15.85;4.30;;;9.30;91.80;;;;;;4913508;28;20040;-76
2022/02/06 08:55:17;;;;;;;20.38;4.10;;;9.30;91.90;;;;;;4914873;28;20135;-72
2022/02/06 08:57:48;;;;;;;14.93;3.67;;;9.30;91.80;;;;;;4917686;28;20142;-76
2022/02/06 09:00:15;;;;;;;15.63;3.47;;;9.40;91.90;;;;;;4920299;28;20499;-74
2022/02/06 09:02:41;;;;;;;11.07;3.15;;;9.40;91.90;;;;;;4917829;28;20043;-76
2022/02/06 09:05:08;;;;;;;14.90;4.00;;;9.40;91.80;;;;;;4916896;28;20091;-74
2022/02/06 09:07:34;;;;;;;10.82;2.65;;;9.40;91.80;;;;;;4910757;29;20138;-74
2022/02/06 09:10:01;;;;;;;14.35;4.10;;;9.40;91.70;;;;;;4913670;28;20035;-73
2022/02/06 09:12:28;;;;;;;12.02;2.70;;;9.50;91.80;;;;;;4915844;28;20044;-76
2022/02/06 09:14:55;;;;;;;15.70;3.75;;;9.40;91.70;;;;;;4912213;28;20547;-74
2022/02/06 09:17:20;;;;;;;11.90;3.05;;;9.40;91.70;;;;;;4911324;28;24257;-74
2022/02/06 09:19:47;;;;;;;14.18;3.15;;;9.40;91.80;;;;;;4915664;28;20035;-75
2022/02/06 09:22:14;;;;;;;11.80;2.70;;;9.40;91.80;;;;;;4914737;28;20336;-74
2022/02/06 09:24:41;;;;;;;9.93;2.63;;;9.40;91.90;;;;;;4915392;28;20151;-75
2022/02/06 09:27:08;;;;;;;11.25;2.53;;;9.40;92.00;;;;;;4930494;28;20063;-70
2022/02/06 09:29:34;;;;;;;9.45;2.40;;;9.40;91.90;;;;;;4912068;28;20081;-70
2022/02/06 09:37:05;;;;;;;10.43;2.70;;;9.60;91.80;;;;;;4920795;28;20046;-68
2022/02/06 09:39:34;;;;;;;9.50;2.80;;;9.50;91.60;;;;;;4916577;28;20047;-69
2022/02/06 09:42:01;;;;;;;8.55;3.20;;;9.60;91.60;;;;;;4915620;28;20067;-69
2022/02/06 09:44:28;;;;;;;9.13;2.47;;;9.60;91.60;;;;;;4928969;28;20146;-68
2022/02/06 09:46:55;;;;;;;10.23;3.08;;;9.60;91.60;;;;;;4918322;28;20047;-68
2022/02/06 09:49:22;;;;;;;13.77;3.15;;;9.60;91.60;;;;;;4920489;28;20390;-70
2022/02/06 09:51:49;;;;;;;11.40;2.92;;;9.60;91.60;;;;;;4913668;28;20043;-69
2022/02/06 09:54:14;;;;;;;10.95;2.85;;;9.60;91.60;;;;;;4915666;28;20042;-68
2022/02/06 09:56:46;;;;;;;10.27;2.75;;;9.70;91.70;;;;;;4912005;28;20051;-69
2022/02/06 09:59:23;;;;;;;10.93;2.80;;;9.60;91.70;;;;;;4912631;28;20043;-69
2022/02/06 10:01:53;;;;;;;9.20;3.40;;;9.70;91.90;;;;;;4917730;28;20287;-69
2022/02/06 10:04:22;;;;;;;11.57;3.22;;;9.70;92.00;;;;;;4926678;28;20027;-70
2022/02/06 10:07:08;;;;;;;12.77;3.35;;;9.70;92.20;;;;;;4915231;29;20443;-68
2022/02/06 10:09:42;;;;;;;11.30;2.58;;;9.70;92.30;;;;;;4910680;28;20388;-71
2022/02/06 10:12:10;;;;;;;10.07;2.72;;;9.70;92.40;;;;;;4915208;28;20398;-71
2022/02/06 10:14:36;;;;;;;9.00;2.40;;;9.70;92.50;;;;;;4908435;28;20046;-71
2022/02/06 10:17:03;;;;;;;12.13;3.45;;;9.70;92.50;;;;;;4909068;28;20039;-69
2022/02/06 10:19:29;;;;;;;9.30;3.10;;;9.80;92.60;;;;;;4914198;28;20039;-70
2022/02/06 10:21:56;;;;;;;10.02;2.97;;;9.80;92.70;;;;;;4919513;28;20142;-68
2022/02/06 10:24:33;;;;;;;11.32;2.42;;;9.80;92.60;;;;;;4911332;28;20059;-70
2022/02/06 10:29:50;;;;;;;11.82;2.60;;;9.90;92.50;;;;;;4909380;28;20043;-68
2022/02/06 10:32:17;;;;;;;10.27;2.78;;;9.90;92.60;;;;;;4916549;28;20035;-70
2022/02/06 10:34:44;;;;;;;7.63;2.20;;;9.90;92.60;;;;;;4927689;28;20122;-69
2022/02/06 10:37:29;;;;;;;12.02;2.72;;;9.90;92.50;;;;;;4920827;28;20047;-69
2022/02/06 10:40:01;;;;;;;;;;;9.90;92.30;;;;;;4928645;28;20471;-69
2022/02/06 10:42:32;;;;;;;13.27;2.83;;;10.00;92.30;;;;;;4907626;29;19969;-69
2022/02/06 10:45:26;;;;;;;11.93;3.28;;;10.00;92.40;;;;;;4912188;28;20038;-71
2022/02/06 10:47:54;;;;;;;8.43;2.53;;;10.00;92.40;;;;;;4913705;28;20040;-70
2022/02/06 10:50:26;;;;;;;12.13;3.65;;;10.00;92.40;;;;;;4913216;28;20067;-70
2022/02/06 10:52:52;;;;;;;13.20;3.50;;;10.10;92.30;;;;;;4909597;28;20554;-71
2022/02/06 10:55:19;;;;;;;12.55;3.70;;;10.10;92.20;;;;;;4917316;28;20048;-69
2022/02/06 10:57:57;;;;;;;16.10;4.32;;;10.10;91.80;;;;;;4922293;28;20048;-71
2022/02/06 11:00:35;;;;;;;14.10;3.53;;;10.30;91.50;;;;;;4922606;28;20575;-71
2022/02/06 11:03:26;;;;;;;19.13;4.00;;;10.30;91.00;;;;;;4916184;28;20464;-71
2022/02/06 11:06:05;;;;;;;21.73;4.25;;;10.40;90.60;;;;;;4917110;28;20056;-70
2022/02/06 11:08:32;;;;;;;18.35;4.15;;;10.50;90.00;;;;;;4900575;28;20045;-71
2022/02/06 11:11:06;;;;;;;22.35;4.53;;;10.60;89.50;;;;;;4930762;28;20354;-70
2022/02/06 11:13:32;;;;;;;17.27;4.13;;;10.60;89.00;;;;;;4915336;28;20064;-70
2022/02/06 11:16:13;;;;;;;20.08;4.90;;;10.60;88.10;;;;;;4923629;28;20039;-69
2022/02/06 11:19:01;;;;;;;14.73;3.00;;;10.70;87.40;;;;;;4917672;28;20847;-71
2022/02/06 11:21:27;;;;;;;11.35;2.67;;;10.60;85.80;;;;;;4915189;28;20048;-71
2022/02/06 11:23:54;;;;;;;10.13;2.47;;;10.50;85.00;;;;;;4942767;28;20044;-69
2022/02/06 11:26:22;;;;;;;9.02;2.45;;;10.40;84.50;;;;;;4927119;28;20436;-70
2022/02/06 11:28:50;;;;;;;11.88;3.33;;;10.20;85.30;;;;;;4916978;28;20761;-70
2022/02/06 11:31:16;;;;;;;8.60;2.42;;;10.10;86.40;;;;;;4931269;28;20042;-70
2022/02/06 11:33:43;;;;;;;6.97;2.35;;;9.90;86.90;;;;;;4922789;28;20050;-70
2022/02/06 11:36:25;;;;;;;8.20;2.00;;;9.60;87.60;;;;;;4913830;28;20130;-71
2022/02/06 11:44:51;;;;;;;;;;;9.10;89.80;;;;;;4914901;28;20559;-70
2022/02/06 11:47:26;;;;;;;5.57;1.80;;;9.00;90.30;;;;;;4920992;28;19945;-69
2022/02/06 11:49:56;;;;;;;3.90;1.30;;;8.90;90.00;;;;;;4922179;28;20039;-70
2022/02/06 11:52:42;;;;;;;11.18;1.80;;;9.10;89.60;;;;;;4916701;28;20039;-69
2022/02/06 11:55:37;;;;;;;10.55;2.45;;;9.20;89.50;;;;;;4911992;28;20054;-71
2022/02/06 11:58:26;;;;;;;11.07;3.13;;;9.40;89.60;;;;;;4924285;28;20051;-70
2022/02/06 12:01:07;;;;;;;21.45;4.88;;;9.40;90.40;;;;;;4929258;28;20455;-68
2022/02/06 12:03:52;;;;;;;20.95;4.75;;;9.50;90.80;;;;;;4928369;28;20043;-68
2022/02/06 12:06:37;;;;;;;18.60;4.00;;;9.60;91.10;;;;;;4916982;28;20052;-70
2022/02/06 12:09:03;;;;;;;21.98;6.03;;;9.60;91.30;;;;;;4927071;28;20906;-71
2022/02/06 12:11:30;;;;;;;25.92;5.95;;;9.70;91.50;;;;;;4928927;28;20652;-71
2022/02/06 12:14:13;;;;;;;26.73;7.50;;;9.70;91.20;;;;;;4919147;28;20427;-70
2022/02/06 12:16:57;;;;;;;16.95;4.53;;;9.80;91.20;;;;;;4898650;28;20048;-73
2022/02/06 12:19:31;;;;;;;6.43;2.35;;;9.70;90.60;;;;;;4923445;28;20039;-69
2022/02/06 12:22:17;;;;;;;6.22;2.30;;;9.10;88.40;;;;;;4918723;28;20143;-69
2022/02/06 12:24:43;;;;;;;5.85;1.95;;;8.60;88.80;;;;;;4916755;28;20046;-70
2022/02/06 12:27:27;;;;;;;5.97;2.10;;;8.30;89.20;;;;;;4918020;28;20036;-71
2022/02/06 12:30:03;;;;;;;11.00;3.40;;;8.30;89.90;;;;;;4919734;28;20062;-69
2022/02/06 12:32:30;;;;;;;9.68;2.92;;;8.40;90.30;;;;;;4915634;28;20047;-70
2022/02/06 12:37:41;;;;;;;12.63;3.45;;;8.60;90.40;;;;;;4920566;28;20062;-70
2022/02/06 12:40:15;;;;;;;18.92;4.97;;;8.70;90.50;;;;;;4919653;28;20043;-72
2022/02/06 12:42:43;;;;;;;19.10;4.35;;;8.90;90.80;;;;;;4917972;28;20114;-72
2022/02/06 12:45:21;;;;;;;16.48;4.85;;;9.00;90.90;;;;;;4918390;28;20503;-69
2022/02/06 12:47:50;;;;;;;23.00;4.82;;;9.20;90.80;;;;;;4923510;28;20100;-69
2022/02/06 12:50:31;;;;;;;19.88;4.55;;;9.40;90.70;;;;;;4922130;28;20040;-71
2022/02/06 12:52:57;;;;;;;23.30;5.03;;;9.60;90.70;;;;;;4919204;28;20652;-69
2022/02/06 12:55:28;;;;;;;19.77;5.25;;;9.70;90.60;;;;;;4921072;28;20047;-70
2022/02/06 12:57:55;;;;;;;26.90;6.18;;;9.90;89.90;;;;;;4921908;28;20383;-68
2022/02/06 13:00:29;;;;;;;23.75;5.93;;;10.00;89.60;;;;;;4916512;28;22856;-69
2022/02/06 13:03:19;;;;;;;27.13;5.85;;;10.10;89.40;;;;;;4928607;28;20044;-69
2022/02/06 13:05:51;;;;;;;23.48;6.60;;;10.20;89.00;;;;;;4906238;28;20040;-69
2022/02/06 13:08:16;;;;;;;21.45;5.07;;;10.20;88.70;;;;;;4912123;28;20501;-68
2022/02/06 13:11:05;;;;;;;15.68;4.18;;;10.20;87.10;;;;;;4920428;28;20044;-70
2022/02/06 13:16:38;;;;;;;13.50;4.18;;;10.20;86.30;;;;;;4920756;28;20036;-70
2022/02/06 13:22:00;;;;;;;17.13;4.38;;;10.50;85.60;;;;;;4928532;28;21396;-69
2022/02/06 13:27:56;;;;;;;16.48;3.30;;;10.70;84.30;;;;;;4934247;28;20048;-69
2022/02/06 13:30:29;;;;;;;15.00;3.72;;;10.70;84.20;;;;;;4916698;28;20064;-70
2022/02/06 13:33:05;;;;;;;16.40;3.97;;;10.60;84.50;;;;;;4916711;28;20254;-70
2022/02/06 13:35:43;;;;;;;14.88;3.88;;;10.60;84.70;;;;;;4918132;28;20048;-69
2022/02/06 13:38:16;;;;;;;17.42;4.65;;;10.50;84.40;;;;;;4917544;28;20035;-69
2022/02/06 13:40:50;;;;;;;16.15;4.97;;;10.60;84.30;;;;;;4914992;28;20463;-69
2022/02/06 13:43:19;;;;;;;;;;;10.60;83.90;;;;;;4930138;28;20497;-70
2022/02/06 13:45:46;;;;;;;16.20;3.35;;;10.70;82.50;;;;;;4920319;28;19931;-69
2022/02/06 13:48:16;;;;;;;17.05;3.25;;;10.60;81.90;;;;;;4918732;28;20126;-68
2022/02/06 13:50:49;;;;;;;12.70;3.70;;;10.50;82.90;;;;;;4918494;28;20136;-68
2022/02/06 13:53:17;;;;;;;16.15;3.55;;;10.40;82.70;;;;;;4913693;28;20499;-68
2022/02/06 13:55:53;;;;;;;18.15;5.20;;;10.40;82.70;;;;;;4915424;28;20138;-72
2022/02/06 13:58:26;;;;;;;13.35;4.82;;;10.50;83.00;;;;;;4930869;28;20386;-68
2022/02/06 14:00:54;;;;;;;10.80;3.75;;;10.40;80.80;;;;;;4919201;28;20063;-69
2022/02/06 14:03:20;;;;;;;11.27;3.10;;;10.50;81.30;;;;;;4929992;28;20163;-70
2022/02/06 14:05:50;;;;;;;14.05;3.78;;;10.50;81.20;;;;;;4917638;28;20162;-69
2022/02/06 14:08:20;;;;;;;12.68;3.30;;;10.60;81.40;;;;;;4916445;28;20403;-69
2022/02/06 14:11:14;;;;;;;14.60;3.30;;;10.50;81.10;;;;;;4921297;28;20070;-71
2022/02/06 14:13:43;;;;;;;13.63;3.33;;;10.60;81.60;;;;;;4921597;28;20119;-69
2022/02/06 14:16:12;;;;;;;12.98;3.80;;;10.60;81.40;;;;;;4920407;28;20036;-69
2022/02/06 14:18:59;;;;;;;10.32;2.72;;;10.70;81.60;;;;;;4921789;28;20039;-69
2022/02/06 14:21:40;;;;;;;12.27;2.97;;;10.70;81.80;;;;;;4950633;28;20036;-69
2022/02/06 14:24:09;;;;;;;16.45;4.07;;;10.70;81.30;;;;;;4922327;28;20035;-70
2022/02/06 14:26:34;;;;;;;12.57;3.58;;;10.90;80.70;;;;;;4934579;28;20134;-69
2022/02/06 14:29:00;;;;;;;16.95;4.00;;;10.80;80.70;;;;;;4949618;28;20070;-71
2022/02/06 14:31:30;;;;;;;11.00;3.33;;;10.70;80.80;;;;;;4936427;28;20035;-68
2022/02/06 14:34:16;;;;;;;13.95;3.67;;;10.70;80.60;;;;;;4920423;28;20028;-69
2022/02/06 14:37:01;;;;;;;13.90;3.83;;;10.70;80.50;;;;;;4930230;28;20036;-69
2022/02/06 14:39:33;;;;;;;13.60;3.03;;;10.80;80.40;;;;;;4940787;28;20099;-70
2022/02/06 14:42:09;;;;;;;13.55;4.30;;;10.80;80.60;;;;;;4921519;28;20040;-70
2022/02/06 14:44:35;;;;;;;11.73;3.17;;;10.90;80.70;;;;;;4923434;28;20028;-68
2022/02/06 14:47:01;;;;;;;11.15;3.17;;;10.80;81.10;;;;;;4925871;28;20047;-71
2022/02/06 14:49:29;;;;;;;13.48;3.60;;;10.90;81.10;;;;;;4919715;28;20046;-69
2022/02/06 14:51:55;;;;;;;13.60;3.78;;;10.90;81.20;;;;;;4920692;28;20484;-70
2022/02/06 14:54:30;;;;;;;16.88;3.50;;;10.90;81.20;;;;;;4920711;28;20064;-68
2022/02/06 14:56:56;;;;;;;13.75;3.60;;;10.80;81.40;;;;;;4921139;28;20749;-68
2022/02/06 14:59:22;;;;;;;15.70;3.60;;;10.90;81.20;;;;;;4918994;28;20438;-69
2022/02/06 15:01:50;;;;;;;16.67;3.13;;;10.80;81.10;;;;;;4920349;28;20538;-71
2022/02/06 15:04:17;;;;;;;11.73;3.25;;;10.70;79.70;;;;;;4917644;28;20094;-70
2022/02/06 15:06:42;;;;;;;15.05;3.15;;;10.70;79.90;;;;;;4917746;28;20707;-69
2022/02/06 15:09:08;;;;;;;13.88;3.00;;;10.60;78.70;;;;;;4909031;28;20068;-68
2022/02/06 15:11:34;;;;;;;15.23;3.25;;;10.60;79.50;;;;;;4920946;28;20466;-68
2022/02/06 15:14:00;;;;;;;12.60;3.50;;;10.40;79.50;;;;;;4914548;28;20138;-68
2022/02/06 15:16:29;;;;;;;9.38;3.05;;;10.40;79.70;;;;;;4921235;28;20067;-69
2022/02/06 15:18:59;;;;;;;10.82;3.13;;;10.30;79.90;;;;;;4919294;28;20036;-69
2022/02/06 15:21:25;;;;;;;9.25;3.15;;;10.30;80.20;;;;;;4914521;28;20483;-69
2022/02/06 15:23:50;;;;;;;13.85;3.80;;;10.30;80.00;;;;;;4918996;28;20191;-69
2022/02/06 15:26:16;;;;;;;15.70;4.57;;;10.20;80.30;;;;;;4918279;28;20047;-70
2022/02/06 15:28:42;;;;;;;15.30;3.60;;;10.20;80.40;;;;;;4919493;28;20524;-68
2022/02/06 15:31:08;;;;;;;11.77;3.55;;;10.20;80.60;;;;;;4918725;28;20039;-69
2022/02/06 15:33:33;;;;;;;14.43;3.63;;;10.20;80.10;;;;;;4914672;28;20047;-70
2022/02/06 15:35:59;;;;;;;14.70;4.10;;;10.20;79.90;;;;;;4920399;28;20036;-70
2022/02/06 15:38:29;;;;;;;13.23;3.45;;;10.20;79.70;;;;;;4926587;28;20115;-69
2022/02/06 15:40:58;;;;;;;14.75;3.50;;;10.10;80.00;;;;;;4921068;28;20099;-71
2022/02/06 15:43:23;;;;;;;12.20;3.10;;;10.20;80.20;;;;;;4934516;28;20448;-68